• Join FlightAware (Why Join?)
  • Login
  • US Flag 
05:05AM EST


 

Airport Tracker/Info


-or-


 

Live Flight TrackerFlight Track Log ✈ FIN666 ✈ 23-Nov-2013 ✈ EKCH / CPH - EFHK / HEL

Flight Track Log - Related Links

Times and Time Zones

All times are in EST time to prevent confusion due to time zone crossing. See the FIN666 flight status page for this flight to view local times or setup timezone preferences in your user account.

Time Position Orientation Groundspeed Altitude Reporting Facility
EST Latitude Longitude Course Direction KTS MPH feet Rate Location/Type
07:34AM 55.8329 13.1000 49° Northeast  Level Estimated
07:35AM 55.9042 13.2491 50° Northeast  Level Estimated
07:36AM 55.9783 13.4052 50° Northeast  Level Estimated
07:37AM 56.0523 13.5619 50° Northeast  Level Estimated
07:38AM 56.1260 13.7192 50° Northeast  Level Estimated
07:39AM 56.1986 13.8748 50° Northeast  Level Estimated
07:40AM 56.2709 14.0311 50° Northeast  Level Estimated
07:41AM 56.3430 14.1879 50° Northeast  Level Estimated
07:42AM 56.4149 14.3454 50° Northeast  Level Estimated
07:43AM 56.4867 14.5034 51° Northeast  Level Estimated
07:44AM 56.5582 14.6620 51° Northeast  Level Estimated
07:45AM 56.6295 14.8212 51° Northeast  Level Estimated
07:46AM 56.7006 14.9810 51° Northeast  Level Estimated
07:47AM 56.7716 15.1415 51° Northeast  Level Estimated
07:48AM 56.8423 15.3025 51° Northeast  Level Estimated
07:49AM 56.9128 15.4642 51° Northeast  Level Estimated
07:50AM 56.9831 15.6264 51° Northeast  Level Estimated
07:51AM 57.0532 15.7893 52° Northeast  Level Estimated
07:52AM 57.1230 15.9528 52° Northeast  Level Estimated
07:53AM 57.1927 16.1169 52° Northeast  Level Estimated
07:54AM 57.2621 16.2816 52° Northeast  Level Estimated
07:55AM 57.3313 16.4469 52° Northeast  Level Estimated
07:56AM 57.4003 16.6129 52° Northeast  Level Estimated
07:57AM 57.4691 16.7795 52° Northeast  Level Estimated
07:58AM 57.5377 16.9467 53° Northeast  Level Estimated
07:59AM 57.6061 17.1145 53° Northeast  Level Estimated
08:00AM 57.6742 17.2830 53° Northeast  Level Estimated
08:01AM 57.7421 17.4521 53° Northeast  Level Estimated
08:02AM 57.8097 17.6219 53° Northeast  Level Estimated
08:03AM 57.8772 17.7923 53° Northeast  Level Estimated
08:04AM 57.9444 17.9633 53° Northeast  Level Estimated
08:05AM 58.0114 18.1350 54° Northeast  Level Estimated
08:06AM 58.0781 18.3073 54° Northeast  Level Estimated
08:07AM 58.1447 18.4802 54° Northeast  Level Estimated
08:08AM 58.2109 18.6538 54° Northeast  Level Estimated
08:09AM 58.2770 18.8281 54° Northeast  Level Estimated
08:10AM 58.3428 19.0029 54° Northeast  Level Estimated
08:11AM 58.4084 19.1785 54° Northeast  Level Estimated
08:12AM 58.4737 19.3547 55° Northeast  Level Estimated
08:13AM 58.5388 19.5315 55° Northeast  Level Estimated
08:14AM 58.6036 19.7090 55° Northeast  Level Estimated
08:15AM 58.6682 19.8872 55° Northeast  Level Estimated
08:16AM 58.7326 20.0660 55° Northeast  Level Estimated
08:17AM 58.7967 20.2455 55° Northeast  Level Estimated
08:18AM 58.8605 20.4257 56° Northeast  Level Estimated
08:19AM 58.9241 20.6065 56° Northeast  Level Estimated
08:20AM 58.9875 20.7880 56° Northeast  Level Estimated
08:21AM 59.0506 20.9701 56° Northeast  Level Estimated
08:22AM 59.1134 21.1530 56° Northeast  Level Estimated
08:23AM 59.1760 21.3365 56° Northeast  Level Estimated
08:24AM 59.2383 21.5206 56° Northeast  Level Estimated
08:25AM 59.3004 21.7054 57° Northeast  Level Estimated
08:26AM 59.3622 21.8909 57° Northeast  Level Estimated
08:27AM 59.4237 22.0771 57° Northeast  Level Estimated
08:28AM 59.4850 22.2640 57° Northeast  Level Estimated
08:29AM 59.5460 22.4515 57° Northeast  Level Estimated
08:30AM 59.6067 22.6397 57° Northeast  Level Estimated
08:31AM 59.6671 22.8286 58° Northeast  Level Estimated
08:32AM 59.7273 23.0182 58° Northeast  Level Estimated
08:33AM 59.7872 23.2085 58° Northeast  Level Estimated
08:34AM 59.8469 23.3994 58° Northeast  Level Estimated
08:35AM 59.9062 23.5911 58° Northeast  Level Estimated
08:36AM 59.9653 23.7834 58° Northeast  Level Estimated
08:37AM 60.0241 23.9764 59° Northeast  Level Estimated
08:38AM 60.0826 24.1701 59° Northeast  Level Estimated
08:39AM 60.1409 24.3644 59° Northeast  Level Estimated
08:40AM 60.1988 24.5595 59° Northeast  Level Estimated
08:41AM 60.2565 24.7552 59° Northeast  Level Estimated
08:42AM 60.3138 24.9517 59° Northeast  Level Estimated
08:43AM 60.3172 24.9633 60° Northeast  Level Estimated
08:44AM 60.3172 24.9633 37° Northeast  Level Estimated
08:45AM 60.3172 24.9633 37° Northeast  Level Estimated
08:46AM 60.3172 24.9633 37° Northeast  Level Estimated
08:47AM 60.3172 24.9633 37° Northeast  Level Estimated
08:48AM 60.3172 24.9633 37° Northeast  Level Estimated
08:49AM 60.3172 24.9633 37° Northeast  Level Estimated
08:50AM 60.3172 24.9633 37° Northeast  Level Estimated